Time;durP1;ratioP1;P1;durP2;ratioP2;P2;SDS_P1;SDS_P2;PMS_P1;PMS_P2;Temp;Humidity;BMP_temperature;BMP_pressure;BME280_temperature;BME280_humidity;BME280_pressure;Samples;Min_cycle;Max_cycle;Signal;HPM_P1;HPM_P2
2023/03/06 00:00:28;;;;;;;;;48.25;39.00;;;;;7.68;100.00;100390.69;4855574;29;45540;-84
2023/03/06 00:02:54;;;;;;;;;44.50;39.00;;;;;7.60;100.00;100387.91;4870600;29;44956;-83
2023/03/06 00:05:20;;;;;;;;;48.67;39.00;;;;;7.59;100.00;100375.53;4871537;29;45892;-83
2023/03/06 00:07:45;;;;;;;;;44.00;37.67;;;;;7.64;100.00;100378.28;4889213;28;45752;-85
2023/03/06 00:10:14;;;;;;;;;47.67;38.67;;;;;7.66;100.00;100379.19;4931401;28;44775;-84
2023/03/06 00:12:41;;;;;;;;;43.00;38.33;;;;;7.59;100.00;100378.19;4947958;28;45357;-85
2023/03/06 00:15:54;;;;;;;;;39.00;35.33;;;;;7.78;100.00;100386.50;4947246;28;48220;-84
2023/03/06 00:18:20;;;;;;;;;40.67;36.67;;;;;7.76;100.00;100383.81;4945907;28;45825;-82
2023/03/06 00:20:45;;;;;;;;;48.67;36.67;;;;;7.71;100.00;100369.56;4947021;28;45718;-84
2023/03/06 00:23:11;;;;;;;;;44.00;38.67;;;;;7.71;100.00;100361.63;4946247;28;45432;-86
2023/03/06 00:25:40;;;;;;;;;41.33;36.67;;;;;7.74;100.00;100359.06;4946528;28;46207;-85
2023/03/06 00:28:07;;;;;;;;;39.67;36.67;;;;;7.80;100.00;100366.22;4947388;28;45753;-83
2023/03/06 00:30:32;;;;;;;;;38.33;35.67;;;;;7.81;100.00;100363.59;4946021;28;45326;-84
2023/03/06 00:32:58;;;;;;;;;41.67;37.67;;;;;7.82;100.00;100357.44;4947246;28;45452;-84
2023/03/06 00:35:23;;;;;;;;;46.33;36.00;;;;;7.87;100.00;100359.28;4947885;28;46151;-84
2023/03/06 00:37:49;;;;;;;;;33.00;32.33;;;;;7.84;100.00;100353.91;4948179;28;45712;-84
2023/03/06 00:40:53;;;;;;;;;46.00;36.33;;;;;7.95;100.00;100363.84;4948635;28;45406;-85
2023/03/06 00:43:18;;;;;;;;;40.00;34.33;;;;;7.81;100.00;100353.00;4950804;28;45328;-84
2023/03/06 00:45:44;;;;;;;;;44.00;39.67;;;;;7.75;100.00;100352.00;4950741;28;47602;-84
2023/03/06 00:48:16;;;;;;;;;47.67;39.00;;;;;7.77;100.00;100345.88;4950293;28;45463;-84
2023/03/06 00:50:44;;;;;;;;;43.33;34.67;;;;;7.75;100.00;100355.53;4966913;28;45349;-84
2023/03/06 00:53:12;;;;;;;;;37.67;36.00;;;;;7.58;100.00;100344.63;4950918;28;45387;-85
2023/03/06 00:55:37;;;;;;;;;44.33;37.33;;;;;7.59;100.00;100353.44;4949469;28;45757;-84
2023/03/06 00:58:02;;;;;;;;;44.67;35.00;;;;;7.57;100.00;100352.53;4949397;28;45429;-84
2023/03/06 01:00:28;;;;;;;;;33.67;33.67;;;;;7.57;100.00;100356.09;4948326;28;45365;-85
2023/03/06 01:02:53;;;;;;;;;44.33;36.00;;;;;7.50;100.00;100348.00;4967480;28;45164;-83
2023/03/06 01:05:19;;;;;;;;;37.00;34.33;;;;;7.51;100.00;100361.22;4950009;28;46587;-85
2023/03/06 01:07:45;;;;;;;;;35.67;27.67;;;;;7.41;100.00;100348.69;4949949;28;45743;-84
2023/03/06 01:10:11;;;;;;;;;44.33;37.00;;;;;7.35;100.00;100354.75;4968223;28;45388;-84
2023/03/06 01:12:36;;;;;;;;;40.25;32.75;;;;;7.29;100.00;100357.28;4967150;28;45283;-84
2023/03/06 01:15:03;;;;;;;;;47.00;38.75;;;;;7.32;100.00;100349.38;4968339;28;45690;-85
2023/03/06 01:17:28;;;;;;;;;38.75;34.50;;;;;7.28;100.00;100355.47;4966096;28;45952;-84
2023/03/06 01:19:54;;;;;;;;;40.33;37.33;;;;;7.30;100.00;100351.13;4949617;28;44982;-84
2023/03/06 01:22:19;;;;;;;;;48.50;41.50;;;;;7.24;100.00;100343.06;4948686;28;45405;-84
2023/03/06 01:24:45;;;;;;;;;48.33;38.33;;;;;7.13;100.00;100336.63;4949452;28;47857;-83
2023/03/06 01:27:10;;;;;;;;;41.50;37.00;;;;;7.13;100.00;100341.91;4950140;28;45315;-84
2023/03/06 01:29:35;;;;;;;;;37.75;32.25;;;;;7.19;100.00;100349.97;4966311;28;45687;-84
2023/03/06 01:32:01;;;;;;;;;43.00;38.00;;;;;7.16;100.00;100337.59;4948989;28;45472;-85
2023/03/06 01:34:28;;;;;;;;;39.67;37.00;;;;;7.20;100.00;100327.97;4950621;28;47942;-85
2023/03/06 01:36:53;;;;;;;;;50.00;39.00;;;;;7.17;100.00;100328.81;4950178;28;45411;-84
2023/03/06 01:39:18;;;;;;;;;35.25;31.00;;;;;7.15;100.00;100332.25;4968572;28;45886;-84
2023/03/06 01:41:44;;;;;;;;;41.75;36.25;;;;;7.11;100.00;100333.97;4953239;28;45502;-85
2023/03/06 01:44:12;;;;;;;;;29.00;26.00;;;;;7.10;100.00;100331.28;4951367;28;47412;-84
2023/03/06 01:46:41;;;;;;;;;45.33;34.33;;;;;7.10;100.00;100323.34;4950981;28;45558;-83
2023/03/06 01:49:19;;;;;;;;;32.00;28.33;;;;;7.11;100.00;100314.53;4952246;28;45873;-84
2023/03/06 01:52:00;;;;;;;;;41.33;32.67;;;;;7.19;100.00;100319.16;4951666;28;45354;-83
2023/03/06 01:54:27;;;;;;;;;40.75;36.50;;;;;7.14;100.00;100314.63;4968707;28;45456;-84
2023/03/06 01:57:08;;;;;;;;;39.33;33.33;;;;;7.12;100.00;100311.06;4968086;28;45469;-83
2023/03/06 01:59:37;;;;;;;;;39.00;36.67;;;;;7.09;100.00;100305.69;4950716;28;45406;-83
2023/03/06 02:02:07;;;;;;;;;45.33;37.33;;;;;7.13;100.00;100299.59;4969503;28;45527;-83
2023/03/06 02:04:34;;;;;;;;;36.67;31.00;;;;;7.08;100.00;100298.63;4951820;28;48258;-83
2023/03/06 02:07:03;;;;;;;;;43.50;37.25;;;;;7.19;100.00;100310.31;4967668;28;45357;-84
2023/03/06 02:09:30;;;;;;;;;48.00;39.67;;;;;7.13;100.00;100299.59;4965838;28;45468;-84
2023/03/06 02:11:56;;;;;;;;;27.67;27.67;;;;;7.12;100.00;100303.13;4967904;28;45460;-84
2023/03/06 02:14:22;;;;;;;;;39.33;33.67;;;;;7.11;100.00;100298.69;4951223;28;46862;-84
2023/03/06 02:16:47;;;;;;;;;39.00;33.67;;;;;7.13;100.00;100291.66;4969334;28;45503;-84
2023/03/06 02:19:56;;;;;;;;;38.67;34.33;;;;;7.18;100.00;100303.25;4967390;28;45666;-84
2023/03/06 02:22:28;;;;;;;;;37.00;31.33;;;;;7.05;100.00;100301.19;4969463;28;45432;-86
2023/03/06 02:25:02;;;;;;;;;40.00;33.00;;;;;6.96;100.00;100284.28;4951363;28;47530;-84
2023/03/06 02:27:27;;;;;;;;;42.00;38.00;;;;;6.92;100.00;100285.06;4967259;28;45374;-84
2023/03/06 02:29:53;;;;;;;;;42.67;37.67;;;;;6.84;100.00;100270.81;4950574;28;45579;-83
2023/03/06 02:32:18;;;;;;;;;36.00;31.67;;;;;6.90;100.00;100275.34;4952741;28;45545;-83
2023/03/06 02:34:56;;;;;;;;;45.33;37.00;;;;;6.94;100.00;100274.53;4952179;28;47133;-84
2023/03/06 02:37:23;;;;;;;;;45.00;37.67;;;;;6.92;100.00;100271.84;4969118;28;46090;-84
2023/03/06 02:40:00;;;;;;;;;47.33;37.00;;;;;6.98;100.00;100264.06;4968736;28;45478;-83
2023/03/06 02:42:27;;;;;;;;;34.67;31.33;;;;;6.96;100.00;100260.50;4951398;28;44959;-84
2023/03/06 02:44:54;;;;;;;;;46.00;37.67;;;;;6.97;100.00;100256.13;4968366;28;45371;-83
2023/03/06 02:47:20;;;;;;;;;45.00;39.33;;;;;6.96;100.00;100257.84;4965870;28;45498;-83
2023/03/06 02:49:46;;;;;;;;;43.00;36.67;;;;;7.00;100.00;100251.75;4968267;28;45497;-84
2023/03/06 02:52:12;;;;;;;;;37.00;32.33;;;;;7.13;100.00;100252.91;4951754;28;45483;-85
2023/03/06 02:54:38;;;;;;;;;44.67;39.00;;;;;7.20;100.00;100259.22;4970519;28;46572;-84
2023/03/06 02:57:03;;;;;;;;;40.67;37.00;;;;;7.25;100.00;100252.28;4952223;28;44896;-85
2023/03/06 02:59:29;;;;;;;;;37.67;33.67;;;;;7.29;100.00;100247.91;4950193;28;45398;-83
2023/03/06 03:01:54;;;;;;;;;38.33;32.67;;;;;7.22;100.00;100231.03;4950125;28;45603;-85
2023/03/06 03:04:20;;;;;;;;;35.33;31.33;;;;;7.24;100.00;100231.09;4967866;28;45393;-85
2023/03/06 03:06:45;;;;;;;;;42.67;37.00;;;;;7.13;100.00;100231.78;4950111;28;45424;-84
2023/03/06 03:09:11;;;;;;;;;36.67;33.67;;;;;7.19;100.00;100252.13;4951982;28;44879;-85
2023/03/06 03:11:36;;;;;;;;;43.00;37.33;;;;;7.10;100.00;100236.97;4968924;28;45259;-85
2023/03/06 03:14:02;;;;;;;;;40.67;36.33;;;;;7.15;100.00;100251.19;4970978;28;46042;-85
2023/03/06 03:16:27;;;;;;;;;44.00;37.00;;;;;7.07;100.00;100236.94;4952294;28;45385;-84
2023/03/06 03:18:52;;;;;;;;;28.33;27.33;;;;;7.11;100.00;100256.38;4953130;28;45323;-85
2023/03/06 03:21:18;;;;;;;;;42.33;35.00;;;;;6.98;100.00;100242.03;4954153;28;45650;-84
2023/03/06 03:23:44;;;;;;;;;40.00;36.00;;;;;6.90;100.00;100231.28;4971089;28;45480;-84
2023/03/06 03:26:17;;;;;;;;;34.33;32.00;;;;;6.95;100.00;100237.56;4970093;28;45433;-83
2023/03/06 03:28:43;;;;;;;;;39.67;33.67;;;;;6.86;100.00;100226.78;4969359;28;45396;-83
2023/03/06 03:31:10;;;;;;;;;39.33;31.00;;;;;6.82;100.00;100232.88;4951942;28;45406;-84
2023/03/06 03:36:57;;;;;;;;;41.33;34.00;;;;;6.72;100.00;100231.78;4969609;28;44791;-84
2023/03/06 03:39:23;;;;;;;;;36.00;34.33;;;;;6.74;100.00;100231.81;4951187;28;45406;-84
2023/03/06 03:41:48;;;;;;;;;41.33;35.33;;;;;6.79;100.00;100233.72;4952325;28;45446;-83
2023/03/06 03:44:13;;;;;;;;;42.00;37.00;;;;;6.80;100.00;100226.66;4951258;28;47947;-83
2023/03/06 03:46:39;;;;;;;;;50.00;40.00;;;;;6.80;100.00;100221.38;4951778;28;45562;-83
2023/03/06 03:49:05;;;;;;;;;45.33;38.33;;;;;6.77;100.00;100216.06;4951979;28;45437;-85
2023/03/06 03:51:30;;;;;;;;;38.00;34.33;;;;;6.80;100.00;100221.38;4951062;28;45689;-84
2023/03/06 03:53:56;;;;;;;;;40.00;30.67;;;;;6.76;100.00;100217.78;4968690;28;45611;-84
2023/03/06 03:56:23;;;;;;;;;41.33;37.00;;;;;6.79;100.00;100214.34;4950752;28;45481;-82
2023/03/06 03:58:51;;;;;;;;;37.00;33.67;;;;;6.79;100.00;100215.22;4969026;28;45517;-84
2023/03/06 04:01:16;;;;;;;;;41.00;36.67;;;;;6.73;100.00;100214.19;4950886;28;45395;-82
2023/03/06 04:03:42;;;;;;;;;40.67;36.33;;;;;6.70;100.00;100206.19;4950614;28;47444;-84
2023/03/06 04:06:08;;;;;;;;;48.00;40.33;;;;;6.70;100.00;100211.47;4967109;28;44758;-85
2023/03/06 04:08:34;;;;;;;;;39.67;35.33;;;;;6.68;100.00;100210.56;4951022;28;45323;-84
2023/03/06 04:11:01;;;;;;;;;51.67;39.00;;;;;6.76;100.00;100206.31;4953840;28;44851;-84
2023/03/06 04:13:28;;;;;;;;;48.67;37.33;;;;;6.75;100.00;100209.84;4969603;28;45515;-84
2023/03/06 04:15:55;;;;;;;;;43.33;36.67;;;;;6.75;100.00;100204.56;4970284;28;45483;-85
2023/03/06 04:18:22;;;;;;;;;44.67;37.00;;;;;6.72;100.00;100199.19;4967621;28;45781;-82
2023/03/06 04:20:48;;;;;;;;;39.33;37.33;;;;;6.70;100.00;100198.25;4968257;28;45373;-83
2023/03/06 04:23:14;;;;;;;;;41.33;37.33;;;;;6.63;100.00;100188.44;4967160;28;46670;-83
2023/03/06 04:25:40;;;;;;;;;35.67;35.00;;;;;6.60;100.00;100192.81;4951330;28;45674;-83
2023/03/06 04:28:06;;;;;;;;;36.00;32.00;;;;;6.66;100.00;100192.03;4949968;28;45440;-84
2023/03/06 04:30:32;;;;;;;;;46.00;34.67;;;;;6.72;100.00;100197.44;4967237;28;45389;-84
2023/03/06 04:32:58;;;;;;;;;41.67;36.33;;;;;6.83;100.00;100200.31;4965732;28;45392;-83
2023/03/06 04:35:25;;;;;;;;;30.33;28.00;;;;;6.89;100.00;100196.88;4967890;28;45933;-84
2023/03/06 04:37:50;;;;;;;;;38.33;31.33;;;;;6.80;100.00;100192.31;4968043;28;45480;-84
2023/03/06 04:40:19;;;;;;;;;43.33;38.00;;;;;6.81;100.00;100191.47;4968016;28;45705;-83
2023/03/06 04:42:44;;;;;;;;;41.33;38.67;;;;;6.78;100.00;100199.31;4954695;28;46810;-84
2023/03/06 04:45:10;;;;;;;;;29.00;25.00;;;;;6.77;100.00;100189.63;4959336;28;45502;-84
2023/03/06 04:47:35;;;;;;;;;35.00;32.00;;;;;6.85;100.00;100197.69;4930505;28;45417;-86
2023/03/06 04:50:02;;;;;;;;;36.33;35.33;;;;;6.90;100.00;100196.91;4948078;28;45408;-84
2023/03/06 04:52:28;;;;;;;;;40.33;34.67;;;;;6.92;100.00;100200.47;4930108;28;47366;-84
2023/03/06 04:54:53;;;;;;;;;42.33;33.67;;;;;6.89;100.00;100179.28;4931337;28;45455;-84
2023/03/06 04:57:18;;;;;;;;;43.00;38.67;;;;;7.01;100.00;100192.75;4948498;28;45472;-84
2023/03/06 04:59:48;;;;;;;;;31.67;31.33;;;;;7.06;100.00;100194.59;4932121;28;45795;-84
2023/03/06 05:02:26;;;;;;;;;42.33;37.00;;;;;7.13;100.00;100191.19;4932106;28;48532;-84
2023/03/06 05:04:52;;;;;;;;;38.67;30.33;;;;;7.00;100.00;100184.78;4948497;28;45524;-84
2023/03/06 05:07:17;;;;;;;;;46.00;33.00;;;;;7.00;100.00;100200.66;4948403;28;45394;-84
2023/03/06 05:09:43;;;;;;;;;40.33;35.00;;;;;7.00;100.00;100182.13;4931617;28;45437;-84
2023/03/06 05:12:08;;;;;;;;;38.67;38.00;;;;;7.03;100.00;100176.00;4931214;28;48273;-84
2023/03/06 05:14:33;;;;;;;;;44.33;37.67;;;;;7.06;100.00;100187.53;4947628;28;45434;-83
2023/03/06 05:17:00;;;;;;;;;47.00;35.67;;;;;7.16;100.00;100193.91;4929642;28;45637;-84
2023/03/06 05:19:32;;;;;;;;;42.67;39.00;;;;;7.12;100.00;100186.78;4931372;28;45468;-83
2023/03/06 05:21:58;;;;;;;;;36.33;33.00;;;;;7.05;100.00;100177.84;4930130;28;48114;-84
2023/03/06 05:24:23;;;;;;;;;41.00;34.67;;;;;7.05;100.00;100179.56;4946978;28;44866;-85
2023/03/06 05:26:49;;;;;;;;;40.33;38.00;;;;;7.12;100.00;100192.94;4930874;28;45438;-85
2023/03/06 05:29:14;;;;;;;;;36.00;31.33;;;;;7.10;100.00;100185.84;4949235;28;45463;-85
2023/03/06 05:31:39;;;;;;;;;46.00;37.00;;;;;7.08;100.00;100184.94;4931020;28;46728;-84
2023/03/06 05:34:05;;;;;;;;;42.67;34.33;;;;;7.11;100.00;100183.25;4932236;28;45553;-84
2023/03/06 05:36:30;;;;;;;;;44.33;36.67;;;;;7.05;100.00;100171.66;4931441;28;44966;-85
2023/03/06 05:38:56;;;;;;;;;36.00;31.67;;;;;7.12;100.00;100179.72;4931315;28;44861;-84
2023/03/06 05:41:21;;;;;;;;;46.00;34.67;;;;;7.09;100.00;100165.53;4948038;28;45339;-84
2023/03/06 05:43:47;;;;;;;;;32.33;29.00;;;;;7.16;100.00;100178.03;4931409;28;45181;-84
2023/03/06 05:46:12;;;;;;;;;39.00;35.00;;;;;7.13;100.00;100168.31;4964061;28;44890;-84
2023/03/06 05:48:38;;;;;;;;;35.33;33.67;;;;;7.12;100.00;100170.91;4971108;28;45960;-84
2023/03/06 05:51:04;;;;;;;;;38.33;35.67;;;;;7.11;100.00;100148.88;4987442;28;47162;-83
2023/03/06 05:53:30;;;;;;;;;43.33;37.00;;;;;7.07;100.00;100131.16;4984580;28;45143;-84
2023/03/06 05:56:04;;;;;;;;;35.33;31.00;;;;;7.13;100.00;100136.56;4986952;28;45468;-85
2023/03/06 05:58:32;;;;;;;;;44.00;33.33;;;;;7.06;100.00;100141.72;4986975;28;45474;-83
2023/03/06 06:00:59;;;;;;;;;39.00;36.00;;;;;7.03;100.00;100145.19;4986746;28;45470;-84
2023/03/06 06:03:27;;;;;;;;;41.00;36.00;;;;;7.10;100.00;100146.19;4986487;28;45492;-84
2023/03/06 06:05:52;;;;;;;;;39.67;32.00;;;;;7.04;100.00;100128.47;4987358;28;45350;-84
2023/03/06 06:08:21;;;;;;;;;35.67;31.33;;;;;7.17;100.00;100121.63;4986906;28;45356;-85
2023/03/06 06:10:46;;;;;;;;;41.00;38.00;;;;;7.16;100.00;100128.69;4987178;28;47158;-84
2023/03/06 06:13:12;;;;;;;;;37.33;36.33;;;;;7.10;100.00;100131.22;4986834;28;45579;-84
2023/03/06 06:15:37;;;;;;;;;28.67;25.33;;;;;7.09;100.00;100139.09;4971291;28;45381;-84
2023/03/06 06:18:03;;;;;;;;;44.00;35.00;;;;;7.07;100.00;100127.63;4987418;28;45387;-84
2023/03/06 06:20:28;;;;;;;;;36.00;31.00;;;;;7.14;100.00;100137.44;4988986;28;45458;-84
2023/03/06 06:22:53;;;;;;;;;38.33;33.00;;;;;7.15;100.00;100133.94;4972766;28;45515;-85
2023/03/06 06:25:21;;;;;;;;;33.33;32.67;;;;;7.20;100.00;100137.56;4972848;28;45516;-83
2023/03/06 06:27:48;;;;;;;;;28.67;26.33;;;;;7.20;100.00;100141.09;4971521;28;45748;-83
2023/03/06 06:30:13;;;;;;;;;33.00;29.33;;;;;7.17;100.00;100153.34;4975064;28;48303;-83
2023/03/06 06:32:39;;;;;;;;;39.33;33.33;;;;;7.18;100.00;100160.44;4974820;28;45371;-84
2023/03/06 06:35:05;;;;;;;;;40.00;35.00;;;;;7.20;100.00;100164.00;4987826;28;45277;-85
2023/03/06 06:37:30;;;;;;;;;38.33;31.00;;;;;7.14;100.00;100158.59;4973350;28;45359;-84
2023/03/06 06:39:56;;;;;;;;;44.00;36.33;;;;;7.06;100.00;100149.66;4975437;28;46929;-85
2023/03/06 06:42:22;;;;;;;;;34.00;30.67;;;;;7.03;100.00;100170.72;4973986;28;44981;-84
2023/03/06 06:44:47;;;;;;;;;36.33;32.67;;;;;6.91;100.00;100182.84;4964090;28;45538;-85
2023/03/06 06:47:19;;;;;;;;;35.00;33.67;;;;;6.82;100.00;100156.22;4933372;28;45458;-84
2023/03/06 06:49:49;;;;;;;;;45.67;37.33;;;;;6.92;100.00;100184.63;4951921;28;47419;-83
2023/03/06 06:52:19;;;;;;;;;45.00;37.00;;;;;6.79;100.00;100166.75;4959347;28;45598;-83
2023/03/06 06:54:47;;;;;;;;;39.00;34.00;;;;;6.65;100.00;100152.38;4972294;28;45432;-83
2023/03/06 06:57:16;;;;;;;;;38.67;33.00;;;;;6.83;100.00;100165.97;4956445;28;45452;-84
2023/03/06 06:59:45;;;;;;;;;41.33;34.67;;;;;6.78;100.00;100188.75;4972796;28;45440;-84
2023/03/06 07:02:17;;;;;;;;;34.00;30.33;;;;;6.59;100.00;100169.88;4971752;28;45392;-84
2023/03/06 07:04:43;;;;;;;;;33.33;31.00;;;;;6.49;100.00;100161.72;4940110;28;45442;-83
2023/03/06 07:07:08;;;;;;;;;43.33;37.00;;;;;6.68;100.00;100186.78;4974541;28;45376;-84
2023/03/06 07:09:38;;;;;;;;;35.00;33.33;;;;;6.75;100.00;100186.06;4956708;28;46786;-84
2023/03/06 07:12:05;;;;;;;;;39.67;31.67;;;;;6.64;100.00;100161.16;4971364;28;45456;-84
2023/03/06 07:14:30;;;;;;;;;35.33;33.00;;;;;6.64;100.00;100155.88;4952174;28;45484;-85
2023/03/06 07:16:57;;;;;;;;;30.00;28.00;;;;;6.88;100.00;100174.84;4944681;28;45444;-84
2023/03/06 07:19:26;;;;;;;;;35.67;31.00;;;;;6.90;100.00;100181.06;4948049;28;46943;-84
2023/03/06 07:21:51;;;;;;;;;38.67;34.33;;;;;6.87;100.00;100170.44;4956228;28;45394;-83
2023/03/06 07:24:16;;;;;;;;;24.33;23.33;;;;;6.93;100.00;100165.28;4969138;28;45507;-82
2023/03/06 07:26:49;;;;;;;;;38.33;31.33;;;;;6.95;100.00;100155.63;4952161;28;44974;-84
2023/03/06 07:29:54;;;;;;;;;30.33;28.33;;;;;7.15;100.00;100166.56;4945272;28;48080;-84
2023/03/06 07:32:20;;;;;;;;;32.33;23.00;;;;;7.11;100.00;100177.03;4968371;28;45697;-84
2023/03/06 07:34:46;;;;;;;;;29.00;22.67;;;;;7.12;100.00;100170.91;4953811;28;45362;-84
2023/03/06 07:37:35;;;;;;;;;33.00;30.67;;;;;7.19;100.00;100172.78;4954629;28;45668;-84
2023/03/06 07:40:01;;;;;;;;;32.00;26.33;;;;;7.14;100.00;100174.47;4944734;28;47093;-84
2023/03/06 07:46:09;;;;;;;;;42.33;35.67;;;;;7.26;100.00;100176.47;4970998;28;45377;-84
2023/03/06 07:48:39;;;;;;;;;27.67;26.33;;;;;7.13;100.00;100162.09;4953416;28;45512;-83
2023/03/06 07:51:13;;;;;;;;;37.00;32.33;;;;;7.16;100.00;100156.88;4954346;28;46674;-83
2023/03/06 07:53:42;;;;;;;;;34.00;28.33;;;;;7.15;100.00;100155.09;4953419;28;45282;-83
2023/03/06 07:56:12;;;;;;;;;29.33;27.67;;;;;7.32;100.00;100172.16;4964096;28;45452;-83
2023/03/06 07:58:45;;;;;;;;;32.00;27.67;;;;;7.40;100.00;100178.47;4934632;28;45367;-85
2023/03/06 08:01:18;;;;;;;;;27.33;24.67;;;;;7.18;100.00;100145.47;4911462;28;47244;-83
2023/03/06 08:03:47;;;;;;;;;33.00;28.67;;;;;7.13;100.00;100138.28;4940528;28;45418;-84
2023/03/06 08:06:34;;;;;;;;;34.33;27.67;;;;;7.46;100.00;100179.47;4959303;28;45393;-85
2023/03/06 08:09:07;;;;;;;;;34.00;33.33;;;;;7.52;100.00;100187.50;4955482;28;45542;-85
2023/03/06 08:11:32;;;;;;;;;29.67;27.00;;;;;7.49;100.00;100184.78;4954602;28;47533;-84
2023/03/06 08:13:58;;;;;;;;;39.33;32.33;;;;;7.24;100.00;100139.41;4954427;28;45466;-85
2023/03/06 08:16:33;;;;;;;;;35.33;31.67;;;;;7.45;100.00;100154.75;4974421;28;45155;-85
2023/03/06 08:18:59;;;;;;;;;28.00;23.00;;;;;7.55;100.00;100182.25;4955986;28;44750;-84
2023/03/06 08:21:36;;;;;;;;;27.00;26.33;;;;;7.58;100.00;100175.25;4969898;28;45274;-84
2023/03/06 08:27:29;;;;;;;;;37.67;30.33;;;;;7.61;100.00;100158.53;4967411;28;45381;-84
2023/03/06 08:40:22;;;;;;;;;38.33;33.00;;;;;7.93;100.00;100158.16;5058001;23;45503;-85
2023/03/06 08:42:52;;;;;;;;;31.67;30.67;;;;;8.13;100.00;100188.50;4934386;28;45397;-85
2023/03/06 08:45:24;;;;;;;;;35.33;31.67;;;;;8.24;100.00;100203.66;4914943;28;45336;-85
2023/03/06 08:55:16;;;;;;;;;31.67;30.00;;;;;8.56;100.00;100199.75;4830927;29;45432;-85
2023/03/06 08:57:58;;;;;;;;;31.00;29.00;;;;;8.35;100.00;100194.13;4834174;29;44904;-83
2023/03/06 09:00:24;;;;;;;;;31.33;25.67;;;;;8.26;100.00;100200.19;4824998;29;45370;-82
2023/03/06 09:06:39;;;;;;;;;28.00;28.00;;;;;8.14;100.00;100200.88;4831940;29;45752;-83
2023/03/06 09:09:07;;;;;;;;;24.67;20.00;;;;;7.89;100.00;100196.06;4830519;29;45579;-82
2023/03/06 09:11:52;;;;;;;;;;;;;;;;;;;;;
2023/03/06 09:14:31;;;;;;;;;30.00;28.67;;;;;8.04;100.00;100183.06;4831662;29;64634;-84
2023/03/06 09:16:57;;;;;;;;;27.00;22.33;;;;;8.06;100.00;100185.72;4831131;29;45678;-82
2023/03/06 09:19:49;;;;;;;;;25.67;18.00;;;;;8.15;100.00;100183.22;4819838;29;45595;-84
2023/03/06 09:22:18;;;;;;;;;28.33;28.00;;;;;8.11;100.00;100174.34;4802745;29;45506;-82
2023/03/06 09:25:16;;;;;;;;;37.67;32.33;;;;;8.19;100.00;100154.16;4816088;29;46118;-83
2023/03/06 09:28:04;;;;;;;;;;;;;;;;;;;;;
2023/03/06 09:30:56;;;;;;;;;26.33;23.33;;;;;8.83;100.00;100195.69;4908233;29;72701;-83
2023/03/06 09:33:48;;;;;;;;;33.33;29.00;;;;;9.06;100.00;100200.34;4894942;29;45448;-82
2023/03/06 09:37:08;;;;;;;;;37.67;27.67;;;;;9.13;100.00;100208.41;4912899;29;45394;-82
2023/03/06 09:39:31;;;;;;;;;41.67;31.33;;;;;9.14;100.00;100174.81;4907824;28;45496;-82
2023/03/06 09:42:53;;;;;;;;;;;;;;;;;;;;;
2023/03/06 09:46:16;;;;;;;;;27.67;24.67;;;;;9.59;100.00;100202.66;4931569;28;45425;-83
2023/03/06 09:53:02;;;;;;;;;34.33;29.33;;;;;9.82;100.00;100205.53;4801341;29;45452;-83
2023/03/06 09:58:58;;;;;;;;;26.00;21.33;;;;;10.09;100.00;100203.97;4803363;29;45515;-83
2023/03/06 10:02:12;;;;;;;;;22.00;20.67;;;;;9.76;97.77;100158.56;4751219;29;45346;-84
2023/03/06 10:06:07;;;;;;;;;;;;;;;;;;;;;
2023/03/06 10:16:31;;;;;;;;;27.33;27.00;;;;;9.90;93.82;100176.41;4794044;29;45490;-81
2023/03/06 10:23:38;;;;;;;;;;;;;;;;;;;;;
2023/03/06 10:27:05;;;;;;;;;;;;;;;;;;;;;
2023/03/06 10:40:41;;;;;;;;;24.00;21.00;;;;;10.31;80.43;100136.81;2966857;26;45331;-82
2023/03/06 10:48:25;;;;;;;;;29.33;21.67;;;;;10.66;85.04;100178.63;4976866;28;45770;-83
2023/03/06 10:51:26;;;;;;;;;28.33;27.33;;;;;10.51;86.99;100144.03;4969345;28;45178;-83
2023/03/06 10:54:02;;;;;;;;;29.33;27.00;;;;;10.63;88.07;100164.47;4972090;28;45492;-81
2023/03/06 10:57:27;;;;;;;;;29.33;28.00;;;;;10.75;87.06;100151.22;4958754;28;44827;-82
2023/03/06 11:00:05;;;;;;;;;28.33;25.33;;;;;10.80;84.59;100139.69;4925021;28;45411;-83
2023/03/06 11:02:43;;;;;;;;;30.67;25.00;;;;;10.69;78.35;100137.91;4988730;28;44830;-84
2023/03/06 11:05:54;;;;;;;;;32.67;25.00;;;;;11.02;83.78;100174.34;4979958;28;45488;-83
2023/03/06 11:26:09;;;;;;;;;26.33;21.33;;;;;10.60;76.98;100162.66;4940882;28;46620;-83
2023/03/06 11:34:36;;;;;;;;;22.00;21.33;;;;;11.05;77.39;100146.84;4996595;23;45823;-83
2023/03/06 11:37:52;;;;;;;;;22.67;22.33;;;;;11.25;78.34;100150.47;4930249;28;45627;-82
2023/03/06 11:40:30;;;;;;;;;23.67;22.00;;;;;11.47;76.85;100148.69;4969005;28;45318;-80
2023/03/06 11:43:47;;;;;;;;;;;;;;;;;;;;;
2023/03/06 11:46:51;;;;;;;;;26.67;25.00;;;;;11.69;74.66;100146.06;4975816;28;67949;-84
2023/03/06 11:55:20;;;;;;;;;22.67;20.33;;;;;11.61;70.78;100143.38;4924378;28;44903;-83
2023/03/06 11:58:21;;;;;;;;;22.00;21.00;;;;;11.15;71.67;100149.56;4911738;29;45533;-84
2023/03/06 12:04:55;;;;;;;;;;;;;;;;;;;;;
2023/03/06 12:07:53;;;;;;;;;18.33;17.33;;;;;10.39;73.69;100152.81;4853380;29;45896;-82
2023/03/06 12:16:08;;;;;;;;;25.33;23.33;;;;;9.91;80.63;100143.63;5311200;23;48773;-83
2023/03/06 12:23:09;;;;;;;;;26.67;23.00;;;;;9.64;83.58;100129.28;4935928;28;44773;-83
2023/03/06 12:26:08;;;;;;;;;;;;;;;;;;;;;
2023/03/06 12:29:04;;;;;;;;;13.00;10.00;;;;;9.51;84.97;100130.03;4911635;28;45511;-84
2023/03/06 12:31:54;;;;;;;;;29.00;26.00;;;;;9.46;85.88;100132.66;4896599;29;45434;-81
2023/03/06 12:34:59;;;;;;;;;22.67;21.67;;;;;9.37;86.01;100125.50;4916927;28;45516;-79
2023/03/06 12:37:48;;;;;;;;;31.00;26.67;;;;;9.32;87.61;100124.56;4891436;29;45339;-82
2023/03/06 12:40:47;;;;;;;;;29.00;24.67;;;;;9.43;88.32;100122.00;4887830;29;47218;-83
2023/03/06 12:43:43;;;;;;;;;31.67;28.67;;;;;9.60;87.78;100122.16;4873027;29;44873;-82
2023/03/06 12:46:24;;;;;;;;;20.33;17.67;;;;;9.40;87.59;100090.13;4881534;29;44993;-82
2023/03/06 12:49:37;;;;;;;;;32.33;27.33;;;;;9.49;88.07;100121.16;4876062;29;45018;-83
2023/03/06 12:52:23;;;;;;;;;29.33;25.67;;;;;9.51;90.12;100122.06;4858672;29;47299;-82
2023/03/06 12:58:29;;;;;;;;;34.00;29.33;;;;;10.13;90.26;100103.03;4880431;28;44986;-82
2023/03/06 13:02:21;;;;;;;;;;;;;;;;;;;;;
2023/03/06 13:05:24;;;;;;;;;26.33;21.33;;;;;10.73;86.99;100059.91;4900132;29;73677;-82
2023/03/06 13:08:49;;;;;;;;;;;;;;;;;;;;;
2023/03/06 13:11:52;;;;;;;;;25.67;24.00;;;;;10.94;85.24;100101.59;4928623;28;68355;-82
2023/03/06 13:18:57;;;;;;;;;30.67;27.00;;;;;10.82;86.67;100097.16;4914419;29;45669;-83
2023/03/06 13:33:36;;;;;;;;;32.33;29.67;;;;;10.79;88.75;100083.84;4099987;23;45367;-84
2023/03/06 13:36:36;;;;;;;;;28.00;26.00;;;;;10.93;88.66;100084.75;4939190;28;45480;-84
2023/03/06 13:39:37;;;;;;;;;31.67;29.33;;;;;11.04;88.09;100075.91;4938737;28;45587;-82
2023/03/06 13:42:24;;;;;;;;;26.00;23.00;;;;;10.90;86.93;100046.63;4946647;28;45549;-83
2023/03/06 13:45:38;;;;;;;;;23.00;21.67;;;;;11.05;86.41;100083.00;4956804;28;45651;-85
2023/03/06 13:48:23;;;;;;;;;34.67;29.33;;;;;10.66;87.15;100007.56;4938101;28;44920;-81
2023/03/06 13:50:58;;;;;;;;;24.33;23.67;;;;;11.02;86.05;100074.13;4960971;28;45234;-83
2023/03/06 13:54:13;;;;;;;;;30.33;24.33;;;;;10.95;86.85;100067.03;4958508;28;45615;-82
2023/03/06 13:57:21;;;;;;;;;29.00;25.67;;;;;10.87;85.28;100076.78;4938777;28;45389;-84
2023/03/06 14:20:20;;;;;;;;;26.67;22.33;;;;;10.69;89.11;100051.03;4966434;28;44965;-85
2023/03/06 14:23:56;;;;;;;;;25.33;25.00;;;;;10.79;88.96;100066.13;4952380;28;44953;-82
2023/03/06 14:26:35;;;;;;;;;20.00;17.33;;;;;10.49;88.46;100050.97;4832629;29;45571;-82
2023/03/06 14:29:20;;;;;;;;;21.33;21.33;;;;;10.17;89.77;100026.88;4858153;29;45416;-82